sensor_id;sensor_type;location;lat;lon;timestamp;temperature;humidity
27896;DHT22;15241;48.374;10.876;2023-08-31T01:45:04;15.70;99.90
27896;DHT22;15241;48.374;10.876;2023-08-31T01:50:05;15.80;99.90
27896;DHT22;15241;48.374;10.876;2023-08-31T01:55:05;15.80;99.90
27896;DHT22;15241;48.374;10.876;2023-08-31T02:00:06;15.80;99.90
27896;DHT22;15241;48.374;10.876;2023-08-31T02:05:06;15.80;99.90
27896;DHT22;15241;48.374;10.876;2023-08-31T02:10:06;15.80;99.90
27896;DHT22;15241;48.374;10.876;2023-08-31T02:15:06;15.80;99.90
27896;DHT22;15241;48.374;10.876;2023-08-31T02:20:07;15.80;99.90
27896;DHT22;15241;48.374;10.876;2023-08-31T02:25:07;15.70;99.90
27896;DHT22;15241;48.374;10.876;2023-08-31T02:30:08;15.60;99.90
27896;DHT22;15241;48.374;10.876;2023-08-31T02:35:07;15.40;99.90
27896;DHT22;15241;48.374;10.876;2023-08-31T02:40:08;15.40;99.90
27896;DHT22;15241;48.374;10.876;2023-08-31T02:45:08;15.20;99.90
27896;DHT22;15241;48.374;10.876;2023-08-31T02:50:08;15.20;99.90
27896;DHT22;15241;48.374;10.876;2023-08-31T02:55:08;15.20;99.90
27896;DHT22;15241;48.374;10.876;2023-08-31T03:00:09;15.20;99.90
27896;DHT22;15241;48.374;10.876;2023-08-31T03:05:08;15.20;99.90
27896;DHT22;15241;48.374;10.876;2023-08-31T03:10:08;15.20;99.90
27896;DHT22;15241;48.374;10.876;2023-08-31T03:15:09;15.20;99.90
27896;DHT22;15241;48.374;10.876;2023-08-31T03:20:09;15.10;99.90
27896;DHT22;15241;48.374;10.876;2023-08-31T03:25:08;15.00;99.90
27896;DHT22;15241;48.374;10.876;2023-08-31T03:30:09;14.80;99.90
27896;DHT22;15241;48.374;10.876;2023-08-31T03:35:09;14.70;99.90
27896;DHT22;15241;48.374;10.876;2023-08-31T03:40:09;14.70;99.90
27896;DHT22;15241;48.374;10.876;2023-08-31T03:45:09;14.70;99.90
27896;DHT22;15241;48.374;10.876;2023-08-31T03:50:09;14.60;99.90
27896;DHT22;15241;48.374;10.876;2023-08-31T03:55:08;14.50;99.90
27896;DHT22;15241;48.374;10.876;2023-08-31T04:00:09;14.40;99.90
27896;DHT22;15241;48.374;10.876;2023-08-31T04:05:08;14.30;99.90
27896;DHT22;15241;48.374;10.876;2023-08-31T04:10:08;14.30;99.90
27896;DHT22;15241;48.374;10.876;2023-08-31T04:15:09;14.20;99.90
27896;DHT22;15241;48.374;10.876;2023-08-31T04:20:10;14.20;99.90
27896;DHT22;15241;48.374;10.876;2023-08-31T04:25:09;14.10;99.90
27896;DHT22;15241;48.374;10.876;2023-08-31T04:30:09;14.10;99.90
27896;DHT22;15241;48.374;10.876;2023-08-31T04:35:09;14.10;99.90
27896;DHT22;15241;48.374;10.876;2023-08-31T04:40:10;14.10;99.90
27896;DHT22;15241;48.374;10.876;2023-08-31T04:45:10;14.20;99.90
27896;DHT22;15241;48.374;10.876;2023-08-31T04:50:09;14.30;99.90
27896;DHT22;15241;48.374;10.876;2023-08-31T04:55:08;14.30;99.90
27896;DHT22;15241;48.374;10.876;2023-08-31T05:00:10;14.30;99.90
27896;DHT22;15241;48.374;10.876;2023-08-31T05:05:09;14.30;99.90
27896;DHT22;15241;48.374;10.876;2023-08-31T05:10:10;14.40;99.90
27896;DHT22;15241;48.374;10.876;2023-08-31T05:15:10;14.40;99.90
27896;DHT22;15241;48.374;10.876;2023-08-31T05:20:10;14.50;99.90
27896;DHT22;15241;48.374;10.876;2023-08-31T05:25:09;14.60;99.90
27896;DHT22;15241;48.374;10.876;2023-08-31T05:30:09;14.70;99.90
27896;DHT22;15241;48.374;10.876;2023-08-31T05:35:09;14.80;99.90
27896;DHT22;15241;48.374;10.876;2023-08-31T05:40:10;14.90;99.90
27896;DHT22;15241;48.374;10.876;2023-08-31T05:45:10;15.10;99.90
27896;DHT22;15241;48.374;10.876;2023-08-31T05:50:09;15.30;99.90
27896;DHT22;15241;48.374;10.876;2023-08-31T05:55:09;15.30;99.90
27896;DHT22;15241;48.374;10.876;2023-08-31T06:00:09;15.30;99.90
27896;DHT22;15241;48.374;10.876;2023-08-31T06:05:10;15.30;99.90
27896;DHT22;15241;48.374;10.876;2023-08-31T06:10:09;15.40;99.90
27896;DHT22;15241;48.374;10.876;2023-08-31T06:15:09;15.30;99.90
27896;DHT22;15241;48.374;10.876;2023-08-31T06:20:10;15.40;99.90
27896;DHT22;15241;48.374;10.876;2023-08-31T06:25:09;15.40;99.90
27896;DHT22;15241;48.374;10.876;2023-08-31T06:30:10;15.50;99.90
27896;DHT22;15241;48.374;10.876;2023-08-31T06:35:09;15.50;99.90
27896;DHT22;15241;48.374;10.876;2023-08-31T06:40:09;15.40;99.90
27896;DHT22;15241;48.374;10.876;2023-08-31T06:45:09;15.60;99.90
27896;DHT22;15241;48.374;10.876;2023-08-31T06:50:09;15.50;99.90
27896;DHT22;15241;48.374;10.876;2023-08-31T06:55:09;15.80;99.90
27896;DHT22;15241;48.374;10.876;2023-08-31T07:00:10;15.80;99.90
27896;DHT22;15241;48.374;10.876;2023-08-31T07:05:09;15.80;99.90
27896;DHT22;15241;48.374;10.876;2023-08-31T07:10:09;16.00;99.90
27896;DHT22;15241;48.374;10.876;2023-08-31T07:15:09;16.00;99.90
27896;DHT22;15241;48.374;10.876;2023-08-31T07:20:10;16.30;99.90
27896;DHT22;15241;48.374;10.876;2023-08-31T07:25:09;16.40;99.90
27896;DHT22;15241;48.374;10.876;2023-08-31T07:30:09;16.40;99.90
27896;DHT22;15241;48.374;10.876;2023-08-31T07:35:08;16.50;99.90
27896;DHT22;15241;48.374;10.876;2023-08-31T07:40:10;16.60;99.90
27896;DHT22;15241;48.374;10.876;2023-08-31T07:45:10;16.70;99.90
27896;DHT22;15241;48.374;10.876;2023-08-31T07:50:10;16.80;99.90
27896;DHT22;15241;48.374;10.876;2023-08-31T07:55:27;16.90;99.90
27896;DHT22;15241;48.374;10.876;2023-08-31T08:00:26;16.80;99.90
27896;DHT22;15241;48.374;10.876;2023-08-31T08:05:24;16.90;99.90
27896;DHT22;15241;48.374;10.876;2023-08-31T08:10:23;16.90;99.90
27896;DHT22;15241;48.374;10.876;2023-08-31T08:15:21;16.90;99.90
27896;DHT22;15241;48.374;10.876;2023-08-31T08:20:20;16.90;99.90
27896;DHT22;15241;48.374;10.876;2023-08-31T08:25:19;17.00;99.90
27896;DHT22;15241;48.374;10.876;2023-08-31T08:30:17;17.00;99.90
27896;DHT22;15241;48.374;10.876;2023-08-31T08:35:16;17.10;99.90
27896;DHT22;15241;48.374;10.876;2023-08-31T08:40:15;17.00;99.90
27896;DHT22;15241;48.374;10.876;2023-08-31T08:45:14;17.00;99.90
27896;DHT22;15241;48.374;10.876;2023-08-31T08:50:13;17.10;99.90
27896;DHT22;15241;48.374;10.876;2023-08-31T08:55:12;17.10;99.90
27896;DHT22;15241;48.374;10.876;2023-08-31T09:00:13;17.40;99.90
27896;DHT22;15241;48.374;10.876;2023-08-31T09:05:12;17.70;99.90
27896;DHT22;15241;48.374;10.876;2023-08-31T09:10:11;18.00;99.90
27896;DHT22;15241;48.374;10.876;2023-08-31T09:15:10;18.30;99.90
27896;DHT22;15241;48.374;10.876;2023-08-31T09:20:10;18.60;99.90
27896;DHT22;15241;48.374;10.876;2023-08-31T09:25:09;18.70;99.90
27896;DHT22;15241;48.374;10.876;2023-08-31T09:30:09;19.10;99.90
27896;DHT22;15241;48.374;10.876;2023-08-31T09:35:10;19.50;99.90
27896;DHT22;15241;48.374;10.876;2023-08-31T09:40:14;19.70;99.90
27896;DHT22;15241;48.374;10.876;2023-08-31T09:45:11;19.90;99.90
27896;DHT22;15241;48.374;10.876;2023-08-31T09:50:11;19.80;99.90
27896;DHT22;15241;48.374;10.876;2023-08-31T09:55:12;19.80;99.90
27896;DHT22;15241;48.374;10.876;2023-08-31T10:00:13;19.90;99.90
27896;DHT22;15241;48.374;10.876;2023-08-31T10:05:12;20.30;99.90
27896;DHT22;15241;48.374;10.876;2023-08-31T10:10:11;20.80;99.90
27896;DHT22;15241;48.374;10.876;2023-08-31T10:15:11;20.90;99.90
27896;DHT22;15241;48.374;10.876;2023-08-31T10:20:13;20.50;99.90
27896;DHT22;15241;48.374;10.876;2023-08-31T10:25:12;20.40;99.90
27896;DHT22;15241;48.374;10.876;2023-08-31T10:30:26;20.60;99.90
27896;DHT22;15241;48.374;10.876;2023-08-31T10:40:34;19.90;99.90
27896;DHT22;15241;48.374;10.876;2023-08-31T10:45:43;19.70;99.90
27896;DHT22;15241;48.374;10.876;2023-08-31T10:50:45;19.80;99.90
27896;DHT22;15241;48.374;10.876;2023-08-31T10:55:53;20.10;99.90
27896;DHT22;15241;48.374;10.876;2023-08-31T11:00:53;20.10;99.90
27896;DHT22;15241;48.374;10.876;2023-08-31T11:05:55;20.00;99.90
27896;DHT22;15241;48.374;10.876;2023-08-31T11:10:53;20.00;99.90
27896;DHT22;15241;48.374;10.876;2023-08-31T11:15:51;20.10;99.90
27896;DHT22;15241;48.374;10.876;2023-08-31T11:20:51;20.50;99.90
27896;DHT22;15241;48.374;10.876;2023-08-31T11:25:51;20.90;99.90
27896;DHT22;15241;48.374;10.876;2023-08-31T11:30:49;21.10;99.90
27896;DHT22;15241;48.374;10.876;2023-08-31T11:35:48;21.50;99.90
27896;DHT22;15241;48.374;10.876;2023-08-31T11:40:46;21.30;99.90
27896;DHT22;15241;48.374;10.876;2023-08-31T11:45:45;21.40;99.90
27896;DHT22;15241;48.374;10.876;2023-08-31T11:50:43;21.00;99.90
27896;DHT22;15241;48.374;10.876;2023-08-31T11:55:52;21.00;99.90
27896;DHT22;15241;48.374;10.876;2023-08-31T12:00:57;20.80;99.90
27896;DHT22;15241;48.374;10.876;2023-08-31T12:05:56;21.50;99.90
27896;DHT22;15241;48.374;10.876;2023-08-31T12:10:55;22.00;99.90
27896;DHT22;15241;48.374;10.876;2023-08-31T12:15:57;22.40;99.90
27896;DHT22;15241;48.374;10.876;2023-08-31T12:20:55;23.20;99.90
27896;DHT22;15241;48.374;10.876;2023-08-31T12:25:54;23.70;99.90
27896;DHT22;15241;48.374;10.876;2023-08-31T12:30:54;24.40;99.90
27896;DHT22;15241;48.374;10.876;2023-08-31T12:35:52;25.00;99.90
27896;DHT22;15241;48.374;10.876;2023-08-31T12:40:50;25.40;99.90
27896;DHT22;15241;48.374;10.876;2023-08-31T12:45:50;25.10;98.70
27896;DHT22;15241;48.374;10.876;2023-08-31T12:50:48;25.60;98.20
27896;DHT22;15241;48.374;10.876;2023-08-31T12:55:46;25.60;97.10
27896;DHT22;15241;48.374;10.876;2023-08-31T13:00:45;26.30;95.30
27896;DHT22;15241;48.374;10.876;2023-08-31T13:05:44;26.30;95.10
27896;DHT22;15241;48.374;10.876;2023-08-31T13:10:42;26.90;94.30
27896;DHT22;15241;48.374;10.876;2023-08-31T13:15:40;27.50;93.10
27896;DHT22;15241;48.374;10.876;2023-08-31T13:20:39;26.70;92.20
27896;DHT22;15241;48.374;10.876;2023-08-31T13:25:37;26.20;91.40
27896;DHT22;15241;48.374;10.876;2023-08-31T13:30:36;25.80;92.40
27896;DHT22;15241;48.374;10.876;2023-08-31T13:35:34;25.50;92.10
27896;DHT22;15241;48.374;10.876;2023-08-31T13:40:34;25.90;91.90
27896;DHT22;15241;48.374;10.876;2023-08-31T13:45:33;26.20;91.90
27896;DHT22;15241;48.374;10.876;2023-08-31T13:50:32;26.20;92.00
27896;DHT22;15241;48.374;10.876;2023-08-31T13:55:30;26.70;91.10
27896;DHT22;15241;48.374;10.876;2023-08-31T14:00:28;27.20;91.50
27896;DHT22;15241;48.374;10.876;2023-08-31T14:05:27;27.70;91.50
27896;DHT22;15241;48.374;10.876;2023-08-31T14:10:25;27.40;90.70
27896;DHT22;15241;48.374;10.876;2023-08-31T14:15:24;27.60;91.40
27896;DHT22;15241;48.374;10.876;2023-08-31T14:20:22;27.10;91.30
27896;DHT22;15241;48.374;10.876;2023-08-31T14:25:20;27.60;91.10
27896;DHT22;15241;48.374;10.876;2023-08-31T14:30:19;28.00;91.30
27896;DHT22;15241;48.374;10.876;2023-08-31T14:35:18;27.70;90.70
27896;DHT22;15241;48.374;10.876;2023-08-31T14:40:17;27.50;91.20
27896;DHT22;15241;48.374;10.876;2023-08-31T14:45:15;27.50;91.70
27896;DHT22;15241;48.374;10.876;2023-08-31T14:50:14;28.00;91.90
27896;DHT22;15241;48.374;10.876;2023-08-31T14:55:12;27.50;91.00
27896;DHT22;15241;48.374;10.876;2023-08-31T15:00:13;28.00;90.90
27896;DHT22;15241;48.374;10.876;2023-08-31T15:05:12;28.50;90.20
27896;DHT22;15241;48.374;10.876;2023-08-31T15:10:14;28.00;89.00
27896;DHT22;15241;48.374;10.876;2023-08-31T15:15:12;28.20;89.30
27896;DHT22;15241;48.374;10.876;2023-08-31T15:20:11;28.00;90.10
27896;DHT22;15241;48.374;10.876;2023-08-31T15:25:10;27.60;90.40
27896;DHT22;15241;48.374;10.876;2023-08-31T15:30:10;27.50;90.30
27896;DHT22;15241;48.374;10.876;2023-08-31T15:35:09;26.80;91.10
27896;DHT22;15241;48.374;10.876;2023-08-31T15:40:10;26.70;91.30
27896;DHT22;15241;48.374;10.876;2023-08-31T15:45:10;26.70;91.50
27896;DHT22;15241;48.374;10.876;2023-08-31T15:50:10;25.50;92.30
27896;DHT22;15241;48.374;10.876;2023-08-31T15:55:09;25.30;93.20
27896;DHT22;15241;48.374;10.876;2023-08-31T16:00:09;25.20;93.40
27896;DHT22;15241;48.374;10.876;2023-08-31T16:05:09;25.70;93.00
27896;DHT22;15241;48.374;10.876;2023-08-31T16:10:10;25.50;93.30
27896;DHT22;15241;48.374;10.876;2023-08-31T16:15:10;25.20;93.50
27896;DHT22;15241;48.374;10.876;2023-08-31T16:20:10;24.50;94.10
27896;DHT22;15241;48.374;10.876;2023-08-31T16:25:10;23.60;95.00
27896;DHT22;15241;48.374;10.876;2023-08-31T16:30:10;23.30;95.90
27896;DHT22;15241;48.374;10.876;2023-08-31T16:35:11;23.20;96.70
27896;DHT22;15241;48.374;10.876;2023-08-31T16:40:12;23.00;97.40
27896;DHT22;15241;48.374;10.876;2023-08-31T16:45:11;22.30;98.50
27896;DHT22;15241;48.374;10.876;2023-08-31T16:50:11;21.80;99.50
27896;DHT22;15241;48.374;10.876;2023-08-31T16:55:09;21.40;99.90
27896;DHT22;15241;48.374;10.876;2023-08-31T17:00:10;20.90;99.90
27896;DHT22;15241;48.374;10.876;2023-08-31T17:05:09;20.80;99.90
27896;DHT22;15241;48.374;10.876;2023-08-31T17:10:10;20.70;99.90
27896;DHT22;15241;48.374;10.876;2023-08-31T17:15:09;20.50;99.90
27896;DHT22;15241;48.374;10.876;2023-08-31T17:20:10;20.30;99.90
27896;DHT22;15241;48.374;10.876;2023-08-31T17:25:09;20.20;99.90
27896;DHT22;15241;48.374;10.876;2023-08-31T17:30:09;20.00;99.90
27896;DHT22;15241;48.374;10.876;2023-08-31T17:35:08;19.90;99.90
27896;DHT22;15241;48.374;10.876;2023-08-31T17:40:08;19.80;99.90
27896;DHT22;15241;48.374;10.876;2023-08-31T17:45:09;19.70;99.90
27896;DHT22;15241;48.374;10.876;2023-08-31T17:50:09;19.50;99.90
27896;DHT22;15241;48.374;10.876;2023-08-31T17:55:08;19.30;99.90
27896;DHT22;15241;48.374;10.876;2023-08-31T18:00:09;19.20;99.90
27896;DHT22;15241;48.374;10.876;2023-08-31T18:05:10;19.30;99.90
27896;DHT22;15241;48.374;10.876;2023-08-31T18:10:10;19.10;99.90
27896;DHT22;15241;48.374;10.876;2023-08-31T18:15:10;18.90;99.90
27896;DHT22;15241;48.374;10.876;2023-08-31T18:20:12;18.70;99.90
27896;DHT22;15241;48.374;10.876;2023-08-31T18:25:11;18.60;99.90
27896;DHT22;15241;48.374;10.876;2023-08-31T18:30:12;18.40;99.90
27896;DHT22;15241;48.374;10.876;2023-08-31T18:35:10;18.50;99.90
27896;DHT22;15241;48.374;10.876;2023-08-31T18:40:11;18.40;99.90
27896;DHT22;15241;48.374;10.876;2023-08-31T18:45:10;18.30;99.90
27896;DHT22;15241;48.374;10.876;2023-08-31T18:50:11;18.10;99.90
27896;DHT22;15241;48.374;10.876;2023-08-31T18:55:10;18.20;99.90
27896;DHT22;15241;48.374;10.876;2023-08-31T19:00:11;18.10;99.90
27896;DHT22;15241;48.374;10.876;2023-08-31T19:05:10;18.10;99.90
27896;DHT22;15241;48.374;10.876;2023-08-31T19:10:10;18.10;99.90
27896;DHT22;15241;48.374;10.876;2023-08-31T19:15:10;18.10;99.90
27896;DHT22;15241;48.374;10.876;2023-08-31T19:20:10;18.00;99.90
27896;DHT22;15241;48.374;10.876;2023-08-31T19:25:09;17.90;99.90
27896;DHT22;15241;48.374;10.876;2023-08-31T19:30:09;17.90;99.90
27896;DHT22;15241;48.374;10.876;2023-08-31T19:35:08;17.90;99.90
27896;DHT22;15241;48.374;10.876;2023-08-31T19:40:09;17.80;99.90
27896;DHT22;15241;48.374;10.876;2023-08-31T19:45:09;17.70;99.90
27896;DHT22;15241;48.374;10.876;2023-08-31T19:50:08;17.70;99.90
27896;DHT22;15241;48.374;10.876;2023-08-31T19:55:10;17.60;99.90
27896;DHT22;15241;48.374;10.876;2023-08-31T20:00:10;17.60;99.90
27896;DHT22;15241;48.374;10.876;2023-08-31T20:05:09;17.60;99.90
27896;DHT22;15241;48.374;10.876;2023-08-31T20:10:09;17.60;99.90
27896;DHT22;15241;48.374;10.876;2023-08-31T20:15:11;17.50;99.90
27896;DHT22;15241;48.374;10.876;2023-08-31T20:20:12;17.50;99.90
27896;DHT22;15241;48.374;10.876;2023-08-31T20:25:10;17.50;99.90
27896;DHT22;15241;48.374;10.876;2023-08-31T20:30:10;17.50;99.90
27896;DHT22;15241;48.374;10.876;2023-08-31T20:35:08;17.50;99.90
27896;DHT22;15241;48.374;10.876;2023-08-31T20:40:08;17.30;99.90
27896;DHT22;15241;48.374;10.876;2023-08-31T20:45:09;17.30;99.90
27896;DHT22;15241;48.374;10.876;2023-08-31T20:50:09;17.30;99.90
27896;DHT22;15241;48.374;10.876;2023-08-31T20:55:09;17.40;99.90
27896;DHT22;15241;48.374;10.876;2023-08-31T21:00:12;17.40;99.90
27896;DHT22;15241;48.374;10.876;2023-08-31T21:05:11;17.40;99.90
27896;DHT22;15241;48.374;10.876;2023-08-31T21:10:10;17.50;99.90
27896;DHT22;15241;48.374;10.876;2023-08-31T21:15:10;17.40;99.90
27896;DHT22;15241;48.374;10.876;2023-08-31T21:20:10;17.40;99.90
27896;DHT22;15241;48.374;10.876;2023-08-31T21:25:09;17.30;99.90
27896;DHT22;15241;48.374;10.876;2023-08-31T21:30:09;17.40;99.90
27896;DHT22;15241;48.374;10.876;2023-08-31T21:35:08;17.40;99.90
27896;DHT22;15241;48.374;10.876;2023-08-31T21:40:08;17.40;99.90
27896;DHT22;15241;48.374;10.876;2023-08-31T21:45:09;17.30;99.90
27896;DHT22;15241;48.374;10.876;2023-08-31T21:50:09;17.40;99.90
27896;DHT22;15241;48.374;10.876;2023-08-31T21:55:08;17.30;99.90
27896;DHT22;15241;48.374;10.876;2023-08-31T22:00:09;17.30;99.90
27896;DHT22;15241;48.374;10.876;2023-08-31T22:05:09;17.20;99.90
27896;DHT22;15241;48.374;10.876;2023-08-31T22:10:10;17.20;99.90
27896;DHT22;15241;48.374;10.876;2023-08-31T22:15:15;17.30;99.90
27896;DHT22;15241;48.374;10.876;2023-08-31T22:20:15;17.20;99.90
27896;DHT22;15241;48.374;10.876;2023-08-31T22:25:15;17.20;99.90
27896;DHT22;15241;48.374;10.876;2023-08-31T22:30:14;17.20;99.90
27896;DHT22;15241;48.374;10.876;2023-08-31T22:35:13;17.30;99.90
27896;DHT22;15241;48.374;10.876;2023-08-31T22:40:13;17.30;99.90
27896;DHT22;15241;48.374;10.876;2023-08-31T22:45:12;17.40;99.90
27896;DHT22;15241;48.374;10.876;2023-08-31T22:50:10;17.20;99.90
27896;DHT22;15241;48.374;10.876;2023-08-31T22:55:09;17.20;99.90
27896;DHT22;15241;48.374;10.876;2023-08-31T23:00:11;17.30;99.90
27896;DHT22;15241;48.374;10.876;2023-08-31T23:05:09;17.30;99.90
27896;DHT22;15241;48.374;10.876;2023-08-31T23:10:09;17.30;99.90
27896;DHT22;15241;48.374;10.876;2023-08-31T23:15:09;17.30;99.90
27896;DHT22;15241;48.374;10.876;2023-08-31T23:20:09;17.30;99.90
27896;DHT22;15241;48.374;10.876;2023-08-31T23:25:09;17.30;99.90
27896;DHT22;15241;48.374;10.876;2023-08-31T23:30:09;17.20;99.90
27896;DHT22;15241;48.374;10.876;2023-08-31T23:35:09;17.20;99.90
27896;DHT22;15241;48.374;10.876;2023-08-31T23:40:09;17.30;99.90
27896;DHT22;15241;48.374;10.876;2023-08-31T23:45:09;17.30;99.90
27896;DHT22;15241;48.374;10.876;2023-08-31T23:50:09;17.40;99.90
27896;DHT22;15241;48.374;10.876;2023-08-31T23:55:10;17.40;99.90
